Time;durP1;ratioP1;P1;durP2;ratioP2;P2;SDS_P1;SDS_P2;PMS_P1;PMS_P2;Temp;Humidity;BMP_temperature;BMP_pressure;BME280_temperature;BME280_humidity;BME280_pressure;Samples;Min_cycle;Max_cycle;Signal;HPM_P1;HPM_P2
2022/11/05 00:10:05;;;;;;;5.75;2.05;;;;;;;;;;5164189;27;20049;-65
2022/11/05 00:18:02;;;;;;;5.70;2.43;;;;;;;;;;5144971;27;20541;-65
2022/11/05 00:20:28;;;;;;;5.57;2.35;;;;;;;;;;5149914;27;20063;-64
2022/11/05 00:25:57;;;;;;;3.03;2.45;;;;;;;;;;5166275;27;20050;-64
2022/11/05 00:28:24;;;;;;;8.40;2.63;;;;;;;;;;5166575;27;20500;-63
2022/11/05 00:30:51;;;;;;;3.13;2.13;;;;;;;;;;5146321;27;20035;-64
2022/11/05 00:33:17;;;;;;;3.22;2.25;;;;;;;;;;5149908;27;20043;-64
2022/11/05 00:35:43;;;;;;;3.92;2.30;;;;;;;;;;5154171;27;20062;-64
2022/11/05 00:38:10;;;;;;;7.18;2.33;;;;;;;;;;5164368;27;20100;-64
2022/11/05 00:40:36;;;;;;;5.80;2.40;;;;;;;;;;5135709;27;20474;-64
2022/11/05 00:45:47;;;;;;;3.90;2.70;;;;;;;;;;5157120;27;20051;-64
2022/11/05 00:50:59;;;;;;;3.80;2.40;;;;;;;;;;5152236;27;20051;-64
2022/11/05 00:53:25;;;;;;;3.30;2.30;;;;;;;;;;5169187;27;20876;-64
2022/11/05 00:55:51;;;;;;;5.90;2.35;;;;;;;;;;5164966;27;20835;-65
2022/11/05 00:58:18;;;;;;;3.67;2.30;;;;;;;;;;5159235;27;20058;-65
2022/11/05 01:00:49;;;;;;;3.95;2.15;;;;;;;;;;5149410;27;20050;-65
2022/11/05 01:03:17;;;;;;;2.50;1.58;;;;;;;;;;5155763;27;20070;-63
2022/11/05 01:05:45;;;;;;;5.88;1.73;;;;;;;;;;5151648;27;20054;-63
2022/11/05 01:08:12;;;;;;;8.50;2.00;;;;;;;;;;5144299;27;20063;-64
2022/11/05 01:10:40;;;;;;;7.78;2.38;;;;;;;;;;5161444;27;20054;-64
2022/11/05 01:13:06;;;;;;;4.70;1.88;;;;;;;;;;5150063;27;20046;-64
2022/11/05 01:15:38;;;;;;;3.63;2.05;;;;;;;;;;5147347;27;20086;-64
2022/11/05 01:18:05;;;;;;;6.70;2.55;;;;;;;;;;5160634;27;20492;-64
2022/11/05 01:20:31;;;;;;;5.25;2.30;;;;;;;;;;5159553;27;20047;-65
2022/11/05 01:22:58;;;;;;;4.53;2.17;;;;;;;;;;5155481;27;20046;-64
2022/11/05 01:25:24;;;;;;;9.77;2.65;;;;;;;;;;5163158;27;20046;-63
2022/11/05 01:27:51;;;;;;;3.33;2.25;;;;;;;;;;5149770;27;20547;-65
2022/11/05 01:30:17;;;;;;;8.30;2.13;;;;;;;;;;5149653;27;20870;-64
2022/11/05 01:32:44;;;;;;;6.82;2.47;;;;;;;;;;5143184;27;20047;-64
2022/11/05 01:35:12;;;;;;;7.07;2.35;;;;;;;;;;5145272;27;20054;-65
2022/11/05 01:37:38;;;;;;;8.50;2.30;;;;;;;;;;5159691;27;20497;-64
2022/11/05 01:40:06;;;;;;;5.68;2.22;;;;;;;;;;5143484;27;20055;-65
2022/11/05 01:42:33;;;;;;;6.03;2.40;;;;;;;;;;5162438;27;20069;-65
2022/11/05 01:45:05;;;;;;;8.13;2.60;;;;;;;;;;5162443;27;20055;-64
2022/11/05 01:47:42;;;;;;;8.85;2.90;;;;;;;;;;5151589;27;20125;-64
2022/11/05 01:50:17;;;;;;;5.78;2.22;;;;;;;;;;5146942;27;20051;-64
2022/11/05 01:52:44;;;;;;;7.70;3.10;;;;;;;;;;5157198;27;20095;-65
2022/11/05 01:55:12;;;;;;;8.27;2.38;;;;;;;;;;5166323;27;20074;-65
2022/11/05 01:57:38;;;;;;;10.00;2.50;;;;;;;;;;5157511;27;20042;-64
2022/11/05 02:00:05;;;;;;;7.78;2.83;;;;;;;;;;5160111;27;20484;-64
2022/11/05 02:02:31;;;;;;;7.10;2.22;;;;;;;;;;5156636;27;20062;-64
2022/11/05 02:05:01;;;;;;;8.68;2.70;;;;;;;;;;5164724;27;20050;-65
2022/11/05 02:07:28;;;;;;;7.50;2.53;;;;;;;;;;5154096;27;20542;-65
2022/11/05 02:10:00;;;;;;;6.47;2.30;;;;;;;;;;5147048;27;20519;-64
2022/11/05 02:12:28;;;;;;;4.88;2.90;;;;;;;;;;5155087;27;20087;-65
2022/11/05 02:14:57;;;;;;;6.35;3.15;;;;;;;;;;5155876;27;20047;-64
2022/11/05 02:17:42;;;;;;;6.03;2.97;;;;;;;;;;5156261;27;20545;-64
2022/11/05 02:20:22;;;;;;;7.22;3.53;;;;;;;;;;5148495;27;20039;-64
2022/11/05 02:22:58;;;;;;;8.93;3.35;;;;;;;;;;5145859;27;20074;-64
2022/11/05 02:25:56;;;;;;;4.35;2.85;;;;;;;;;;5153820;27;20047;-64
2022/11/05 02:28:22;;;;;;;6.03;3.00;;;;;;;;;;5082180;28;20473;-65
2022/11/05 02:30:49;;;;;;;5.30;2.97;;;;;;;;;;5079523;28;20057;-65
2022/11/05 02:33:15;;;;;;;4.45;2.92;;;;;;;;;;5071207;28;20057;-64
2022/11/05 02:36:00;;;;;;;6.07;2.70;;;;;;;;;;5069457;28;20044;-64
2022/11/05 02:38:27;;;;;;;4.70;3.15;;;;;;;;;;5071907;28;20554;-66
2022/11/05 02:40:58;;;;;;;7.80;2.70;;;;;;;;;;5072426;28;20044;-64
2022/11/05 02:43:46;;;;;;;3.25;2.40;;;;;;;;;;5076079;28;20060;-64
2022/11/05 02:46:19;;;;;;;6.93;2.85;;;;;;;;;;5066047;28;20172;-66
2022/11/05 02:48:54;;;;;;;4.80;2.50;;;;;;;;;;5077958;28;20087;-65
2022/11/05 02:51:29;;;;;;;6.55;2.65;;;;;;;;;;5061590;28;20052;-66
2022/11/05 02:54:10;;;;;;;4.80;2.35;;;;;;;;;;5076079;28;20473;-64
2022/11/05 02:56:38;;;;;;;4.05;2.75;;;;;;;;;;5082203;28;20140;-65
2022/11/05 02:59:05;;;;;;;3.28;2.70;;;;;;;;;;5077774;28;20531;-64
2022/11/05 03:01:32;;;;;;;7.05;3.10;;;;;;;;;;5079505;28;20140;-64
2022/11/05 03:04:00;;;;;;;6.88;3.08;;;;;;;;;;5108699;27;20163;-64
2022/11/05 03:06:32;;;;;;;8.43;3.53;;;;;;;;;;5128583;27;20051;-64
2022/11/05 03:09:16;;;;;;;6.50;3.78;;;;;;;;;;5126555;27;20055;-64
2022/11/05 03:11:52;;;;;;;3.50;2.90;;;;;;;;;;5137684;27;20050;-66
2022/11/05 03:14:25;;;;;;;5.75;2.80;;;;;;;;;;5140527;27;20610;-66
2022/11/05 03:17:08;;;;;;;4.60;2.58;;;;;;;;;;5139978;27;20157;-66
2022/11/05 03:19:57;;;;;;;5.10;3.20;;;;;;;;;;5130933;27;20048;-66
2022/11/05 03:22:27;;;;;;;3.97;2.22;;;;;;;;;;5129923;27;20062;-66
2022/11/05 03:24:56;;;;;;;5.70;2.72;;;;;;;;;;5131767;27;20471;-65
2022/11/05 03:27:26;;;;;;;4.63;2.90;;;;;;;;;;5133297;27;20074;-65
2022/11/05 03:29:57;;;;;;;3.00;2.40;;;;;;;;;;5126991;27;20485;-66
2022/11/05 03:32:25;;;;;;;4.10;2.47;;;;;;;;;;5131437;27;20554;-65
2022/11/05 03:34:55;;;;;;;4.95;2.83;;;;;;;;;;5135254;27;20059;-67
2022/11/05 03:37:22;;;;;;;7.60;2.80;;;;;;;;;;5136438;27;20055;-65
2022/11/05 03:39:55;;;;;;;6.05;2.85;;;;;;;;;;5132958;27;20082;-66
2022/11/05 03:42:24;;;;;;;6.75;2.97;;;;;;;;;;5145241;27;20087;-66
2022/11/05 03:44:52;;;;;;;4.55;2.88;;;;;;;;;;5157348;27;20408;-66
2022/11/05 03:47:21;;;;;;;5.22;3.20;;;;;;;;;;5157294;27;20600;-65
2022/11/05 03:49:59;;;;;;;8.00;3.25;;;;;;;;;;5155418;27;20059;-65
2022/11/05 03:52:28;;;;;;;7.13;3.40;;;;;;;;;;5149617;27;20046;-65
2022/11/05 03:54:55;;;;;;;6.90;3.33;;;;;;;;;;5145009;27;20054;-66
2022/11/05 03:57:27;;;;;;;4.43;3.83;;;;;;;;;;5147722;27;20807;-65
2022/11/05 03:59:53;;;;;;;3.92;3.40;;;;;;;;;;5159657;27;20147;-65
2022/11/05 04:02:21;;;;;;;4.78;3.88;;;;;;;;;;5147606;27;20107;-66
2022/11/05 04:04:48;;;;;;;8.55;4.28;;;;;;;;;;5157216;27;20138;-65
2022/11/05 04:15:29;;;;;;;9.20;3.58;;;;;;;;;;5163175;27;20408;-65
2022/11/05 04:17:57;;;;;;;6.75;3.67;;;;;;;;;;5154841;27;20046;-66
2022/11/05 04:25:56;;;;;;;9.95;3.95;;;;;;;;;;5103417;27;20051;-66
2022/11/05 04:30:17;;;;;;;8.70;3.85;;;;;;;;;;5156435;27;20201;-65
2022/11/05 04:31:08;;;;;;;6.18;4.03;;;;;;;;;;5152548;27;20108;-66
2022/11/05 04:33:35;;;;;;;8.60;3.35;;;;;;;;;;5147242;27;20361;-66
2022/11/05 04:36:01;;;;;;;5.13;3.35;;;;;;;;;;5163561;27;20516;-64
2022/11/05 04:38:27;;;;;;;6.30;3.55;;;;;;;;;;5149697;27;20062;-66
2022/11/05 04:41:10;;;;;;;10.45;3.30;;;;;;;;;;5155979;27;20512;-65
2022/11/05 04:43:36;;;;;;;6.47;3.47;;;;;;;;;;5146971;27;20556;-64
2022/11/05 04:46:03;;;;;;;6.00;3.75;;;;;;;;;;5164479;27;20055;-66
2022/11/05 04:48:29;;;;;;;7.25;3.50;;;;;;;;;;5150179;27;20051;-67
2022/11/05 04:50:55;;;;;;;8.20;3.20;;;;;;;;;;5149352;27;20059;-64
2022/11/05 04:53:21;;;;;;;4.55;2.90;;;;;;;;;;5167421;27;20484;-66
2022/11/05 04:55:48;;;;;;;5.38;3.47;;;;;;;;;;5149958;27;20043;-66
2022/11/05 04:58:14;;;;;;;9.30;3.88;;;;;;;;;;5146260;27;20054;-67
2022/11/05 05:00:40;;;;;;;4.57;3.60;;;;;;;;;;5159922;27;20039;-66
2022/11/05 05:03:07;;;;;;;5.30;3.65;;;;;;;;;;5149517;27;20058;-64
2022/11/05 05:05:34;;;;;;;5.30;3.50;;;;;;;;;;5153743;27;20051;-65
2022/11/05 05:08:00;;;;;;;5.55;3.65;;;;;;;;;;5152314;27;20077;-67
2022/11/05 05:10:27;;;;;;;4.32;3.65;;;;;;;;;;5157098;27;20054;-66
2022/11/05 05:12:53;;;;;;;6.32;3.85;;;;;;;;;;5145421;27;20055;-65
2022/11/05 05:15:19;;;;;;;5.10;3.78;;;;;;;;;;5147713;27;20059;-65
2022/11/05 05:17:50;;;;;;;5.75;3.75;;;;;;;;;;5152807;27;20055;-65
2022/11/05 05:23:02;;;;;;;5.40;3.50;;;;;;;;;;5149268;27;20436;-65
2022/11/05 05:25:29;;;;;;;4.80;3.22;;;;;;;;;;5155638;27;20055;-65
2022/11/05 05:27:56;;;;;;;3.83;3.20;;;;;;;;;;5160687;27;20050;-65
2022/11/05 05:30:23;;;;;;;6.35;3.63;;;;;;;;;;5160214;27;20055;-65
2022/11/05 05:32:49;;;;;;;6.28;3.08;;;;;;;;;;5164771;27;20061;-68
2022/11/05 05:35:15;;;;;;;7.32;3.30;;;;;;;;;;5154105;27;20456;-66
2022/11/05 05:37:43;;;;;;;4.28;2.92;;;;;;;;;;5144039;27;20047;-67
2022/11/05 05:40:09;;;;;;;3.35;2.67;;;;;;;;;;5159754;27;22241;-65
2022/11/05 05:42:36;;;;;;;5.35;3.08;;;;;;;;;;5143182;27;20044;-65
2022/11/05 05:45:08;;;;;;;3.03;2.28;;;;;;;;;;5150729;27;20099;-66
2022/11/05 05:47:35;;;;;;;3.20;2.40;;;;;;;;;;5162521;27;20047;-66
2022/11/05 05:50:01;;;;;;;3.25;2.58;;;;;;;;;;5159558;27;20050;-66
2022/11/05 05:52:27;;;;;;;2.50;2.30;;;;;;;;;;5161863;27;21062;-65
2022/11/05 05:54:54;;;;;;;3.65;2.35;;;;;;;;;;5157741;27;20051;-65
2022/11/05 05:57:20;;;;;;;3.75;2.33;;;;;;;;;;5158866;27;20051;-66
2022/11/05 05:59:46;;;;;;;3.00;2.50;;;;;;;;;;5161257;27;20057;-66
2022/11/05 06:02:13;;;;;;;4.32;2.17;;;;;;;;;;5159538;27;20047;-66
2022/11/05 06:04:39;;;;;;;3.55;2.10;;;;;;;;;;5148256;27;20120;-67
2022/11/05 06:07:06;;;;;;;2.70;1.75;;;;;;;;;;5143078;27;20044;-65
2022/11/05 06:09:32;;;;;;;5.18;2.20;;;;;;;;;;5150645;27;20039;-65
2022/11/05 06:11:59;;;;;;;4.45;2.33;;;;;;;;;;5159988;27;20130;-68
2022/11/05 06:14:25;;;;;;;2.13;1.92;;;;;;;;;;5149351;27;20043;-65
2022/11/05 06:16:51;;;;;;;3.65;2.17;;;;;;;;;;5149076;27;20047;-65
2022/11/05 06:19:17;;;;;;;7.60;2.22;;;;;;;;;;5153361;27;20051;-65
2022/11/05 06:21:44;;;;;;;2.60;1.88;;;;;;;;;;5154358;27;20047;-65
2022/11/05 06:24:10;;;;;;;6.78;1.98;;;;;;;;;;5153594;27;20187;-63
2022/11/05 06:26:41;;;;;;;3.08;1.83;;;;;;;;;;5148059;27;20047;-65
2022/11/05 06:29:09;;;;;;;2.25;2.00;;;;;;;;;;5161154;27;20133;-65
2022/11/05 06:31:35;;;;;;;6.90;2.78;;;;;;;;;;5166312;27;20057;-65
2022/11/05 06:34:02;;;;;;;4.57;2.38;;;;;;;;;;5158816;27;20103;-64
2022/11/05 06:36:28;;;;;;;3.47;2.40;;;;;;;;;;5164741;27;20512;-63
2022/11/05 06:38:54;;;;;;;3.40;2.38;;;;;;;;;;5163118;27;20070;-64
2022/11/05 06:41:21;;;;;;;8.38;2.70;;;;;;;;;;5153915;27;20055;-65
2022/11/05 06:43:47;;;;;;;6.32;2.72;;;;;;;;;;5154577;27;20058;-66
2022/11/05 06:46:13;;;;;;;3.50;3.03;;;;;;;;;;5158598;27;20496;-65
2022/11/05 06:48:40;;;;;;;4.68;3.10;;;;;;;;;;5154977;27;20061;-66
2022/11/05 06:51:07;;;;;;;4.13;3.00;;;;;;;;;;5164365;27;20508;-65
2022/11/05 06:53:33;;;;;;;4.18;3.22;;;;;;;;;;5156871;27;20508;-67
2022/11/05 06:56:06;;;;;;;4.20;3.20;;;;;;;;;;5165070;27;20057;-67
2022/11/05 06:58:33;;;;;;;4.03;3.35;;;;;;;;;;5166132;27;20062;-66
2022/11/05 07:01:03;;;;;;;4.97;3.75;;;;;;;;;;5151868;27;20051;-67
2022/11/05 07:03:29;;;;;;;5.43;4.00;;;;;;;;;;5163435;27;20057;-68
2022/11/05 07:05:58;;;;;;;3.80;3.40;;;;;;;;;;5165956;27;20062;-66
2022/11/05 07:08:25;;;;;;;5.60;3.72;;;;;;;;;;5162406;27;20043;-69
2022/11/05 07:10:51;;;;;;;7.40;4.40;;;;;;;;;;5147587;27;20062;-67
2022/11/05 07:13:17;;;;;;;7.00;4.20;;;;;;;;;;5158513;27;20050;-66
2022/11/05 07:15:44;;;;;;;8.30;4.18;;;;;;;;;;5163552;27;20584;-64
2022/11/05 07:18:10;;;;;;;5.93;4.40;;;;;;;;;;5160881;27;20070;-65
2022/11/05 07:20:36;;;;;;;8.38;4.45;;;;;;;;;;5156276;27;20051;-65
2022/11/05 07:23:04;;;;;;;8.38;4.18;;;;;;;;;;5156641;27;20047;-66
2022/11/05 07:25:31;;;;;;;7.43;4.20;;;;;;;;;;5162303;27;20050;-65
2022/11/05 07:27:57;;;;;;;6.35;4.32;;;;;;;;;;5147444;27;20043;-68
2022/11/05 07:30:24;;;;;;;7.20;4.70;;;;;;;;;;5156198;27;20062;-67
2022/11/05 07:32:50;;;;;;;7.32;4.30;;;;;;;;;;5151010;27;20043;-67
2022/11/05 07:35:17;;;;;;;6.93;4.72;;;;;;;;;;5146393;27;20548;-67
2022/11/05 07:37:44;;;;;;;8.68;4.55;;;;;;;;;;5147930;27;20054;-67
2022/11/05 07:40:11;;;;;;;6.95;4.80;;;;;;;;;;5157839;27;20085;-67
2022/11/05 07:42:44;;;;;;;6.63;4.55;;;;;;;;;;5177622;27;20053;-67
2022/11/05 07:45:11;;;;;;;5.88;5.07;;;;;;;;;;5145970;27;20495;-66
2022/11/05 07:47:38;;;;;;;9.80;5.07;;;;;;;;;;5154754;27;20049;-68
2022/11/05 07:50:05;;;;;;;9.38;5.38;;;;;;;;;;5163973;27;20043;-66
2022/11/05 07:52:31;;;;;;;11.95;6.15;;;;;;;;;;5163865;27;20536;-66
2022/11/05 07:54:58;;;;;;;9.73;5.68;;;;;;;;;;5162941;27;20081;-66
2022/11/05 07:57:24;;;;;;;6.22;4.90;;;;;;;;;;5161045;27;20046;-67
2022/11/05 07:59:50;;;;;;;8.23;4.88;;;;;;;;;;5162220;27;20043;-65
2022/11/05 08:02:17;;;;;;;7.75;4.85;;;;;;;;;;5164017;27;20066;-66
2022/11/05 08:04:44;;;;;;;9.35;5.18;;;;;;;;;;5163586;27;20071;-66
2022/11/05 08:07:10;;;;;;;9.43;5.20;;;;;;;;;;5166419;27;20062;-66
2022/11/05 08:09:37;;;;;;;8.77;4.97;;;;;;;;;;5159345;27;20047;-66
2022/11/05 08:12:03;;;;;;;8.48;4.85;;;;;;;;;;5165608;27;20051;-66
2022/11/05 08:14:29;;;;;;;11.30;4.68;;;;;;;;;;5165086;27;20043;-66
2022/11/05 08:16:56;;;;;;;9.35;5.18;;;;;;;;;;5168103;27;20595;-65
2022/11/05 08:19:22;;;;;;;9.65;4.75;;;;;;;;;;5160109;27;20047;-67
2022/11/05 08:21:49;;;;;;;6.47;4.72;;;;;;;;;;5165845;27;20136;-65
2022/11/05 08:24:15;;;;;;;10.00;5.03;;;;;;;;;;5144997;27;20042;-65
2022/11/05 08:26:41;;;;;;;8.32;5.30;;;;;;;;;;5163834;27;20053;-65
2022/11/05 08:29:08;;;;;;;6.80;4.63;;;;;;;;;;5158632;27;20077;-65
2022/11/05 08:31:35;;;;;;;12.70;5.57;;;;;;;;;;5161377;27;20057;-66
2022/11/05 08:34:02;;;;;;;8.63;4.68;;;;;;;;;;5151296;27;20042;-65
2022/11/05 08:36:28;;;;;;;7.07;5.07;;;;;;;;;;5147447;27;20061;-66
2022/11/05 08:38:54;;;;;;;9.55;5.35;;;;;;;;;;5150468;27;20080;-65
2022/11/05 08:41:21;;;;;;;7.93;5.10;;;;;;;;;;5164795;27;20058;-66
2022/11/05 08:43:47;;;;;;;6.00;4.70;;;;;;;;;;5145329;27;20847;-66
2022/11/05 08:46:14;;;;;;;13.50;5.43;;;;;;;;;;5160975;27;20555;-65
2022/11/05 08:48:40;;;;;;;12.90;4.97;;;;;;;;;;5151371;27;20210;-65
2022/11/05 08:51:06;;;;;;;7.30;4.80;;;;;;;;;;5164999;27;20057;-66
2022/11/05 08:53:33;;;;;;;11.13;4.90;;;;;;;;;;5157127;27;20054;-66
2022/11/05 08:55:59;;;;;;;7.05;4.80;;;;;;;;;;5150807;27;20538;-65
2022/11/05 08:58:25;;;;;;;6.88;4.90;;;;;;;;;;5167349;27;20049;-66
2022/11/05 09:00:52;;;;;;;7.85;4.65;;;;;;;;;;5144027;27;20062;-66
2022/11/05 09:03:19;;;;;;;8.15;4.20;;;;;;;;;;5162758;27;20047;-66
2022/11/05 09:05:45;;;;;;;8.23;4.85;;;;;;;;;;5151186;27;20054;-66
2022/11/05 09:08:16;;;;;;;8.77;4.22;;;;;;;;;;5143608;27;20452;-67
2022/11/05 09:10:43;;;;;;;8.13;4.50;;;;;;;;;;5160692;27;20059;-66
2022/11/05 09:13:10;;;;;;;8.40;4.65;;;;;;;;;;5150353;27;20129;-67
2022/11/05 09:15:45;;;;;;;8.35;5.28;;;;;;;;;;5152620;27;20580;-65
2022/11/05 09:18:12;;;;;;;6.30;4.28;;;;;;;;;;5168192;27;20085;-68
2022/11/05 09:20:39;;;;;;;9.85;5.38;;;;;;;;;;5148020;27;20056;-66
2022/11/05 09:23:06;;;;;;;13.82;5.35;;;;;;;;;;5159470;27;20039;-67
2022/11/05 09:25:32;;;;;;;6.72;4.82;;;;;;;;;;5147056;27;20416;-66
2022/11/05 09:28:09;;;;;;;7.90;5.00;;;;;;;;;;5161525;27;20054;-68
2022/11/05 09:30:42;;;;;;;12.10;5.72;;;;;;;;;;5156937;27;20157;-67
2022/11/05 09:33:09;;;;;;;7.15;4.57;;;;;;;;;;5166200;27;20568;-66
2022/11/05 09:35:39;;;;;;;8.43;5.47;;;;;;;;;;5158692;27;20876;-66
2022/11/05 09:38:05;;;;;;;6.97;5.60;;;;;;;;;;5162571;27;20546;-66
2022/11/05 09:40:36;;;;;;;10.00;5.07;;;;;;;;;;5151423;27;21011;-66
2022/11/05 09:43:03;;;;;;;10.25;5.47;;;;;;;;;;5129120;27;20560;-67
2022/11/05 09:45:31;;;;;;;11.45;5.78;;;;;;;;;;5163910;27;20059;-68
2022/11/05 09:48:00;;;;;;;12.15;5.55;;;;;;;;;;5164195;27;20496;-67
2022/11/05 09:50:32;;;;;;;11.07;5.03;;;;;;;;;;5161514;27;20571;-67
2022/11/05 09:52:59;;;;;;;7.40;5.38;;;;;;;;;;5164834;27;20051;-67
2022/11/05 09:55:31;;;;;;;8.80;4.97;;;;;;;;;;5164012;27;20053;-67
2022/11/05 09:58:00;;;;;;;10.38;5.13;;;;;;;;;;5162475;27;20104;-67
2022/11/05 10:00:27;;;;;;;14.73;7.22;;;;;;;;;;5161276;27;20043;-67
2022/11/05 10:02:57;;;;;;;10.02;5.18;;;;;;;;;;5145350;27;20147;-68
2022/11/05 10:05:25;;;;;;;10.75;5.72;;;;;;;;;;5148039;27;20080;-66
2022/11/05 10:08:12;;;;;;;9.00;5.82;;;;;;;;;;5148126;27;20051;-67
2022/11/05 10:10:43;;;;;;;10.63;5.53;;;;;;;;;;5162818;27;20523;-66
2022/11/05 10:13:28;;;;;;;8.95;6.22;;;;;;;;;;5152931;27;20512;-66
2022/11/05 10:16:11;;;;;;;8.20;4.35;;;;;;;;;;5146899;27;20043;-68
2022/11/05 10:18:38;;;;;;;10.13;4.97;;;;;;;;;;5146850;27;20051;-69
2022/11/05 10:21:05;;;;;;;8.40;4.70;;;;;;;;;;5162221;27;20042;-67
2022/11/05 10:23:31;;;;;;;10.35;5.00;;;;;;;;;;5162481;27;20047;-68
2022/11/05 10:26:02;;;;;;;11.63;4.70;;;;;;;;;;5148185;27;20425;-66
2022/11/05 10:28:30;;;;;;;8.27;4.28;;;;;;;;;;5158288;27;20058;-68
2022/11/05 10:30:58;;;;;;;9.90;4.35;;;;;;;;;;5167479;27;20050;-67
2022/11/05 10:33:29;;;;;;;8.00;4.07;;;;;;;;;;5157799;27;20052;-68
2022/11/05 10:35:59;;;;;;;8.30;4.22;;;;;;;;;;5166992;27;20074;-66
2022/11/05 10:38:26;;;;;;;8.75;3.95;;;;;;;;;;5167462;27;20093;-68
2022/11/05 10:41:20;;;;;;;9.13;4.40;;;;;;;;;;5164873;27;20051;-67
2022/11/05 10:43:53;;;;;;;7.03;4.10;;;;;;;;;;5167588;27;20061;-66
2022/11/05 10:46:22;;;;;;;5.18;3.40;;;;;;;;;;5167289;27;20059;-65
2022/11/05 10:48:56;;;;;;;9.55;4.18;;;;;;;;;;5166520;27;20058;-67
2022/11/05 10:51:23;;;;;;;9.50;3.92;;;;;;;;;;5161723;27;20054;-65
2022/11/05 10:53:53;;;;;;;5.22;3.90;;;;;;;;;;5163774;27;20501;-66
2022/11/05 10:56:28;;;;;;;8.30;3.90;;;;;;;;;;5163483;27;20050;-67
2022/11/05 10:58:55;;;;;;;8.93;4.40;;;;;;;;;;5161839;27;20043;-66
2022/11/05 11:01:22;;;;;;;6.82;4.13;;;;;;;;;;5159563;27;20069;-66
2022/11/05 11:03:50;;;;;;;7.78;4.00;;;;;;;;;;5164301;27;20051;-67
2022/11/05 11:06:27;;;;;;;10.57;4.53;;;;;;;;;;5165316;27;20501;-66
2022/11/05 11:08:55;;;;;;;10.45;4.25;;;;;;;;;;5154401;27;20232;-67
2022/11/05 11:11:50;;;;;;;5.90;4.65;;;;;;;;;;5159105;27;20051;-66
2022/11/05 11:14:18;;;;;;;10.73;4.93;;;;;;;;;;5147443;27;20043;-66
2022/11/05 11:16:46;;;;;;;7.82;4.18;;;;;;;;;;5159733;27;20047;-67
2022/11/05 11:19:29;;;;;;;7.78;3.53;;;;;;;;;;5162072;27;20050;-66
2022/11/05 11:22:15;;;;;;;6.78;4.00;;;;;;;;;;5159377;27;20535;-66
2022/11/05 11:24:47;;;;;;;8.23;4.20;;;;;;;;;;5157136;27;20054;-68
2022/11/05 11:27:15;;;;;;;7.95;4.07;;;;;;;;;;5159478;27;20051;-67
2022/11/05 11:29:42;;;;;;;8.80;4.32;;;;;;;;;;5148258;27;20050;-67
2022/11/05 11:32:15;;;;;;;13.80;4.00;;;;;;;;;;5150858;27;20130;-68
2022/11/05 11:34:43;;;;;;;10.63;4.63;;;;;;;;;;5161696;27;20054;-67
2022/11/05 11:37:13;;;;;;;8.93;4.20;;;;;;;;;;5154848;27;20055;-66
2022/11/05 11:39:47;;;;;;;9.13;4.28;;;;;;;;;;5145528;27;20059;-66
2022/11/05 11:42:19;;;;;;;5.10;4.10;;;;;;;;;;5145594;27;20051;-67
2022/11/05 11:44:46;;;;;;;5.90;4.15;;;;;;;;;;5157576;27;20042;-67
2022/11/05 11:47:14;;;;;;;8.90;4.07;;;;;;;;;;5149835;27;20051;-66
2022/11/05 11:49:40;;;;;;;6.93;4.15;;;;;;;;;;5153941;27;20051;-69
2022/11/05 11:52:11;;;;;;;10.07;4.35;;;;;;;;;;5145503;27;20426;-67
2022/11/05 11:54:38;;;;;;;6.35;3.90;;;;;;;;;;5155888;27;20046;-68
2022/11/05 11:57:24;;;;;;;8.98;4.20;;;;;;;;;;5152037;27;20049;-68
2022/11/05 11:59:51;;;;;;;6.10;3.85;;;;;;;;;;5164180;27;20252;-67
2022/11/05 12:02:54;;;;;;;6.43;4.03;;;;;;;;;;5157181;27;20048;-68
2022/11/05 12:05:32;;;;;;;10.02;4.32;;;;;;;;;;5165379;27;20053;-67
2022/11/05 12:08:19;;;;;;;7.03;4.18;;;;;;;;;;5166726;27;20074;-67
2022/11/05 12:10:58;;;;;;;7.80;4.05;;;;;;;;;;5147860;27;20039;-66
2022/11/05 12:13:31;;;;;;;9.30;3.78;;;;;;;;;;5144812;27;20047;-67
2022/11/05 12:16:21;;;;;;;8.23;3.30;;;;;;;;;;5146648;27;20166;-67
2022/11/05 12:18:53;;;;;;;7.68;3.20;;;;;;;;;;5152980;27;20058;-67
2022/11/05 12:21:34;;;;;;;6.15;3.38;;;;;;;;;;5160757;27;20047;-68
2022/11/05 12:24:21;;;;;;;6.85;3.40;;;;;;;;;;5148966;27;20536;-68
2022/11/05 12:26:56;;;;;;;7.68;3.72;;;;;;;;;;5144046;27;20492;-65
2022/11/05 12:29:32;;;;;;;8.73;3.88;;;;;;;;;;5144519;27;20061;-68
2022/11/05 12:32:20;;;;;;;5.50;3.65;;;;;;;;;;5153876;27;20046;-66
2022/11/05 12:34:54;;;;;;;7.07;4.07;;;;;;;;;;5151062;27;20055;-69
2022/11/05 12:37:48;;;;;;;6.63;3.50;;;;;;;;;;5150468;27;20093;-70
2022/11/05 12:40:32;;;;;;;7.35;3.95;;;;;;;;;;5163245;27;20043;-68
2022/11/05 12:43:18;;;;;;;7.72;3.63;;;;;;;;;;5146838;27;20051;-68
2022/11/05 12:45:49;;;;;;;6.78;3.38;;;;;;;;;;5155342;27;20046;-68
2022/11/05 12:48:27;;;;;;;6.60;3.13;;;;;;;;;;5165591;27;20133;-69
2022/11/05 12:51:20;;;;;;;6.72;2.60;;;;;;;;;;5153202;27;20215;-68
2022/11/05 12:53:47;;;;;;;6.90;3.00;;;;;;;;;;5157195;27;20496;-68
2022/11/05 12:56:23;;;;;;;8.75;2.78;;;;;;;;;;5156149;27;20106;-67
2022/11/05 12:59:01;;;;;;;8.13;3.78;;;;;;;;;;5146131;27;20058;-68
2022/11/05 13:01:35;;;;;;;7.65;2.97;;;;;;;;;;5153108;27;20050;-69
2022/11/05 13:04:07;;;;;;;10.68;3.13;;;;;;;;;;5149910;27;20059;-68
2022/11/05 13:06:39;;;;;;;7.47;3.35;;;;;;;;;;5159396;27;20574;-66
2022/11/05 13:09:26;;;;;;;9.90;4.55;;;;;;;;;;5154756;27;20508;-68
2022/11/05 13:12:02;;;;;;;5.72;2.80;;;;;;;;;;5147659;27;20062;-66
2022/11/05 13:14:39;;;;;;;5.95;2.83;;;;;;;;;;5148722;27;20047;-68
2022/11/05 13:17:09;;;;;;;7.22;3.47;;;;;;;;;;5154280;27;20055;-66
2022/11/05 13:19:48;;;;;;;7.22;3.35;;;;;;;;;;5150556;27;20051;-66
2022/11/05 13:22:17;;;;;;;6.47;2.60;;;;;;;;;;5160209;27;21481;-66
2022/11/05 13:24:48;;;;;;;4.43;2.10;;;;;;;;;;5159210;27;20057;-67
2022/11/05 13:27:18;;;;;;;4.28;2.80;;;;;;;;;;5142957;27;20062;-65
2022/11/05 13:29:47;;;;;;;3.67;2.53;;;;;;;;;;5142527;27;20051;-67
2022/11/05 13:32:29;;;;;;;7.78;2.75;;;;;;;;;;5153990;27;20054;-65
2022/11/05 13:34:56;;;;;;;5.15;2.35;;;;;;;;;;5153582;27;20586;-66
2022/11/05 13:40:15;;;;;;;3.38;2.28;;;;;;;;;;5151182;27;20523;-65
2022/11/05 13:43:01;;;;;;;5.97;3.03;;;;;;;;;;5156177;27;20051;-67
2022/11/05 13:45:30;;;;;;;7.90;2.90;;;;;;;;;;5162334;27;20055;-64
2022/11/05 13:48:15;;;;;;;14.70;3.50;;;;;;;;;;5162202;27;20526;-65
2022/11/05 13:50:41;;;;;;;11.00;3.23;;;;;;;;;;5134002;27;20051;-65
2022/11/05 13:53:10;;;;;;;5.15;2.60;;;;;;;;;;5159353;27;20285;-65
2022/11/05 13:56:08;;;;;;;10.95;3.90;;;;;;;;;;5153454;27;20040;-67
2022/11/05 13:58:46;;;;;;;4.78;2.83;;;;;;;;;;5142623;27;20047;-66
2022/11/05 14:01:19;;;;;;;8.90;3.13;;;;;;;;;;5130495;27;20051;-67
2022/11/05 14:03:47;;;;;;;8.93;3.38;;;;;;;;;;5146545;27;20128;-64
2022/11/05 14:06:21;;;;;;;6.80;3.97;;;;;;;;;;5161703;27;20062;-64
2022/11/05 14:08:48;;;;;;;5.35;3.30;;;;;;;;;;5146491;27;20062;-66
2022/11/05 14:11:24;;;;;;;6.50;3.78;;;;;;;;;;5151543;27;20052;-65
2022/11/05 14:13:53;;;;;;;6.85;3.42;;;;;;;;;;5178166;27;20046;-65
2022/11/05 14:16:21;;;;;;;12.07;3.85;;;;;;;;;;5164298;27;20520;-66
2022/11/05 14:18:50;;;;;;;7.40;3.85;;;;;;;;;;5167086;27;20050;-65
2022/11/05 14:21:26;;;;;;;8.55;4.18;;;;;;;;;;5147659;27;20085;-66
2022/11/05 14:23:53;;;;;;;;;;;;;;;;;;5150889;27;20054;-66
2022/11/05 14:26:21;;;;;;;7.47;3.92;;;;;;;;;;5145542;27;44996;-65
2022/11/05 14:29:08;;;;;;;9.55;4.50;;;;;;;;;;5149598;27;20052;-68
2022/11/05 14:31:37;;;;;;;9.48;4.35;;;;;;;;;;5150772;27;20074;-67
2022/11/05 14:34:47;;;;;;;7.63;4.03;;;;;;;;;;5146977;27;20139;-68
2022/11/05 14:37:13;;;;;;;5.93;3.90;;;;;;;;;;5059303;28;20083;-66
2022/11/05 14:39:39;;;;;;;12.38;3.95;;;;;;;;;;5060945;28;20053;-66
2022/11/05 14:42:16;;;;;;;10.57;3.65;;;;;;;;;;5066542;28;20598;-65
2022/11/05 14:45:21;;;;;;;7.50;4.53;;;;;;;;;;5070873;28;20045;-66
2022/11/05 14:47:55;;;;;;;11.95;4.68;;;;;;;;;;5042486;28;20053;-66
2022/11/05 14:50:26;;;;;;;7.18;3.90;;;;;;;;;;5046751;28;20053;-68
2022/11/05 14:52:54;;;;;;;7.90;3.58;;;;;;;;;;5041673;28;21065;-66
2022/11/05 14:55:28;;;;;;;9.20;3.72;;;;;;;;;;5023395;28;20049;-66
2022/11/05 14:57:54;;;;;;;4.95;3.67;;;;;;;;;;5040807;28;20115;-66
2022/11/05 15:00:39;;;;;;;5.07;3.22;;;;;;;;;;5051876;28;20053;-67
2022/11/05 15:03:24;;;;;;;6.38;3.40;;;;;;;;;;5043601;28;20531;-68
2022/11/05 15:05:51;;;;;;;9.68;3.90;;;;;;;;;;5041673;28;20535;-68
2022/11/05 15:08:40;;;;;;;9.40;3.40;;;;;;;;;;5057459;28;20099;-66
2022/11/05 15:11:21;;;;;;;5.28;3.25;;;;;;;;;;5019125;28;20054;-68
2022/11/05 15:13:56;;;;;;;7.93;3.63;;;;;;;;;;5057289;28;20048;-65
2022/11/05 15:16:24;;;;;;;6.45;3.10;;;;;;;;;;5112604;27;20054;-66
2022/11/05 15:18:52;;;;;;;5.88;3.28;;;;;;;;;;5135244;27;20369;-66
2022/11/05 15:21:19;;;;;;;6.40;3.63;;;;;;;;;;5159023;27;20518;-65
2022/11/05 15:23:47;;;;;;;9.50;3.53;;;;;;;;;;5153834;27;20051;-66
2022/11/05 15:26:16;;;;;;;10.68;3.35;;;;;;;;;;5149366;27;20051;-67
2022/11/05 15:28:47;;;;;;;10.90;3.30;;;;;;;;;;5156238;27;20588;-66
2022/11/05 15:31:13;;;;;;;5.70;3.10;;;;;;;;;;5157088;27;20413;-66
2022/11/05 15:33:40;;;;;;;7.55;3.47;;;;;;;;;;5160791;27;20051;-66
2022/11/05 15:36:25;;;;;;;7.10;3.05;;;;;;;;;;5131192;27;20040;-65
2022/11/05 15:38:52;;;;;;;4.28;3.00;;;;;;;;;;5149968;27;20552;-65
2022/11/05 15:41:38;;;;;;;4.32;2.85;;;;;;;;;;5149095;27;20050;-67
2022/11/05 15:44:04;;;;;;;6.15;2.80;;;;;;;;;;5148504;27;20055;-65